createdAt,value
2023-04-15T00:03:04.407Z,101271.69
2023-04-15T00:08:06.664Z,101258.44
2023-04-15T00:13:08.753Z,101259.28
2023-04-15T00:18:10.858Z,101254.81
2023-04-15T00:23:12.921Z,101255.63
2023-04-15T00:28:15.101Z,101263.59
2023-04-15T00:33:17.916Z,101277.00
2023-04-15T00:38:20.323Z,101268.81
2023-04-15T00:43:22.451Z,101273.41
2023-04-15T00:48:25.031Z,101271.56
2023-04-15T00:53:27.172Z,101268.09
2023-04-15T00:58:29.422Z,101269.75
2023-04-15T01:03:31.864Z,101300.66
2023-04-15T01:08:34.166Z,101316.59
2023-04-15T01:13:36.930Z,101316.69
2023-04-15T01:18:40.432Z,101336.97
2023-04-15T01:23:47.382Z,101334.31
2023-04-15T01:28:49.564Z,101338.78
2023-04-15T01:33:52.182Z,101322.00
2023-04-15T01:38:55.695Z,101299.19
2023-04-15T01:43:57.853Z,101308.84
2023-04-15T01:49:00.131Z,101312.22
2023-04-15T01:54:02.398Z,101332.59
2023-04-15T01:59:05.389Z,101338.91
2023-04-15T02:04:08.337Z,101341.56
2023-04-15T02:09:10.934Z,101342.59
2023-04-15T02:14:13.083Z,101349.53
2023-04-15T02:19:16.270Z,101349.53
2023-04-15T02:24:18.459Z,101347.72
2023-04-15T02:29:20.602Z,101346.00
2023-04-15T02:34:22.719Z,101347.81
2023-04-15T02:39:24.748Z,101341.66
2023-04-15T02:44:27.720Z,101346.97
2023-04-15T02:49:34.053Z,101338.16
2023-04-15T02:54:36.538Z,101342.50
2023-04-15T02:59:39.618Z,101355.78
2023-04-15T03:04:41.705Z,101361.09
2023-04-15T03:09:43.776Z,101355.03
2023-04-15T03:14:46.136Z,101347.50
2023-04-15T03:19:48.327Z,101359.38
2023-04-15T03:24:51.230Z,101355.97
2023-04-15T03:29:53.413Z,101356.84
2023-04-15T03:34:59.116Z,101356.84
2023-04-15T03:40:01.236Z,101360.34
2023-04-15T03:45:03.765Z,101363.00
2023-04-15T03:50:06.433Z,101370.94
2023-04-15T03:55:09.610Z,101370.94
2023-04-15T04:00:11.965Z,101369.25
2023-04-15T04:05:13.958Z,101377.22
2023-04-15T04:10:16.075Z,101370.09
2023-04-15T04:15:18.299Z,101383.47
2023-04-15T04:20:20.429Z,101394.09
2023-04-15T04:25:22.649Z,101395.78
2023-04-15T04:30:25.111Z,101395.91
2023-04-15T04:35:28.079Z,101396.75
2023-04-15T04:40:30.942Z,101402.19
2023-04-15T04:45:33.078Z,101404.72
2023-04-15T04:50:36.068Z,101411.00
2023-04-15T04:55:38.067Z,101426.91
2023-04-15T05:00:40.978Z,101427.78
2023-04-15T05:05:43.668Z,101426.06
2023-04-15T05:10:45.911Z,101435.72
2023-04-15T05:15:48.155Z,101437.63
2023-04-15T05:20:50.504Z,101434.88
2023-04-15T05:25:52.639Z,101436.78
2023-04-15T05:30:54.924Z,101442.09
2023-04-15T05:35:57.168Z,101448.25
2023-04-15T05:40:59.333Z,101457.16
2023-04-15T05:46:01.551Z,101457.16
2023-04-15T05:51:03.714Z,101455.34
2023-04-15T05:56:05.909Z,101454.59
2023-04-15T06:01:08.060Z,101465.13
2023-04-15T06:06:10.279Z,101461.53
2023-04-15T06:11:12.548Z,101472.13
2023-04-15T06:16:14.774Z,101473.09
2023-04-15T06:21:16.976Z,101489.97
2023-04-15T06:26:19.060Z,101493.47
2023-04-15T06:31:21.249Z,101493.56
2023-04-15T06:36:23.326Z,101482.00
2023-04-15T06:41:25.696Z,101480.19
2023-04-15T06:46:27.988Z,101485.50
2023-04-15T06:51:30.661Z,101494.41
2023-04-15T06:56:33.722Z,101502.38
2023-04-15T07:01:36.438Z,101499.63
2023-04-15T07:06:38.924Z,101505.88
2023-04-15T07:11:41.048Z,101492.72
2023-04-15T07:16:43.185Z,101494.53
2023-04-15T07:21:45.341Z,101486.44
2023-04-15T07:26:47.412Z,101486.44
2023-04-15T07:31:49.445Z,101498.88
2023-04-15T07:36:52.233Z,101499.94
2023-04-15T07:41:54.298Z,101512.25
2023-04-15T07:46:57.392Z,101526.47
2023-04-15T07:52:00.289Z,101526.38
2023-04-15T07:57:03.371Z,101531.69
2023-04-15T08:02:05.579Z,101528.91
2023-04-15T08:07:07.841Z,101522.03
2023-04-15T08:12:12.698Z,101528.19
2023-04-15T08:17:14.748Z,101531.69
2023-04-15T08:22:17.959Z,101537.81
2023-04-15T08:27:20.674Z,101551.09
2023-04-15T08:32:22.894Z,101545.78
2023-04-15T08:37:25.012Z,101554.50
2023-04-15T08:42:49.345Z,101547.50
2023-04-15T08:47:56.634Z,101551.00
2023-04-15T08:53:02.351Z,101567.00
2023-04-15T08:58:05.893Z,101553.88
2023-04-15T09:03:09.108Z,101540.38
2023-04-15T09:08:11.320Z,101550.16
2023-04-15T09:13:14.273Z,101550.16
2023-04-15T09:18:35.139Z,101549.28
2023-04-15T09:23:38.670Z,101551.00
2023-04-15T09:28:43.669Z,101548.44
2023-04-15T09:33:58.892Z,101560.88
2023-04-15T09:39:01.267Z,101564.28
2023-04-15T09:44:04.913Z,101559.81
2023-04-15T09:49:11.613Z,101572.22
2023-04-15T09:54:13.713Z,101560.75
2023-04-15T09:59:15.755Z,101569.47
2023-04-15T10:04:18.527Z,101572.03
2023-04-15T10:09:20.825Z,101566.72
2023-04-15T10:14:25.974Z,101577.53
2023-04-15T10:19:31.713Z,101573.00
2023-04-15T10:24:34.251Z,101571.28
2023-04-15T10:29:36.795Z,101545.59
2023-04-15T10:34:39.002Z,101535.75
2023-04-15T10:39:43.490Z,101549.00
2023-04-15T10:44:50.072Z,101554.41
2023-04-15T10:49:59.768Z,101559.63
2023-04-15T10:55:10.822Z,101549.84
2023-04-15T11:00:15.027Z,101554.31
2023-04-15T11:05:18.241Z,101559.63
2023-04-15T11:10:26.375Z,101542.84
2023-04-15T11:15:48.193Z,101531.38
2023-04-15T11:21:04.473Z,101534.88
2023-04-15T11:26:15.601Z,101534.75
2023-04-15T11:31:18.636Z,101543.47
2023-04-15T11:36:20.825Z,101530.22
2023-04-15T11:41:23.816Z,101508.22
2023-04-15T11:46:32.423Z,101504.75
2023-04-15T11:51:36.051Z,101514.38
2023-04-15T11:56:38.275Z,101512.56
2023-04-15T12:01:42.469Z,101502.09
2023-04-15T12:06:45.646Z,101530.31
2023-04-15T12:11:55.380Z,101508.97
2023-04-15T12:17:00.469Z,101500.16
2023-04-15T12:22:06.770Z,101493.16
2023-04-15T12:27:11.607Z,101508.97
2023-04-15T12:32:20.000Z,101503.66
2023-04-15T12:37:22.566Z,101479.78
2023-04-15T12:42:24.729Z,101471.81
2023-04-15T12:47:26.874Z,101473.53
2023-04-15T12:52:29.119Z,101466.41
2023-04-15T12:57:31.342Z,101457.59
2023-04-15T13:02:33.922Z,101459.19
2023-04-15T13:07:36.622Z,101452.19
2023-04-15T13:12:38.680Z,101455.69
2023-04-15T13:17:40.772Z,101458.44
2023-04-15T13:22:42.841Z,101443.28
2023-04-15T13:27:44.979Z,101449.41
2023-04-15T13:32:48.772Z,101439.78
2023-04-15T13:37:54.197Z,101431.66
2023-04-15T13:42:56.459Z,101419.47
2023-04-15T13:47:58.581Z,101433.38
2023-04-15T13:53:00.704Z,101444.84
2023-04-15T13:58:02.729Z,101426.25
2023-04-15T14:03:05.662Z,101427.97
2023-04-15T14:08:07.864Z,101434.13
2023-04-15T14:13:10.131Z,101431.47
2023-04-15T14:18:12.343Z,101424.38
2023-04-15T14:23:14.605Z,101447.31
2023-04-15T14:28:16.831Z,101429.69
2023-04-15T14:33:19.343Z,101441.88
2023-04-15T14:38:22.836Z,101437.41
2023-04-15T14:43:24.972Z,101451.63
2023-04-15T14:48:27.137Z,101439.22
2023-04-15T14:53:29.239Z,101418.41
2023-04-15T14:58:31.495Z,101440.06
2023-04-15T15:03:34.079Z,101434.66
2023-04-15T15:08:37.134Z,101425.00
2023-04-15T15:13:39.312Z,101428.41
2023-04-15T15:18:41.428Z,101432.75
2023-04-15T15:23:43.586Z,101442.63
2023-04-15T15:28:46.297Z,101438.16
2023-04-15T15:33:48.572Z,101452.28
2023-04-15T15:38:50.885Z,101463.75
2023-04-15T15:43:54.644Z,101468.13
2023-04-15T15:48:56.968Z,101473.44
2023-04-15T15:53:59.049Z,101479.59
2023-04-15T15:59:01.169Z,101484.06
2023-04-15T16:04:03.504Z,101479.59
2023-04-15T16:09:06.250Z,101476.09
2023-04-15T16:14:08.615Z,101469.91
2023-04-15T16:19:10.840Z,101479.59
2023-04-15T16:24:12.900Z,101482.34
2023-04-15T16:29:14.958Z,101489.22
2023-04-15T16:34:17.823Z,101491.88
2023-04-15T16:39:20.023Z,101500.69
2023-04-15T16:44:22.159Z,101507.72
2023-04-15T16:49:24.232Z,101511.22
2023-04-15T16:54:26.326Z,101516.63
2023-04-15T16:59:28.564Z,101518.44
2023-04-15T17:04:31.083Z,101521.94
2023-04-15T17:09:33.255Z,101536.91
2023-04-15T17:14:35.548Z,101542.22
2023-04-15T17:19:37.987Z,101551.06
2023-04-15T17:24:39.986Z,101551.16
2023-04-15T17:29:42.157Z,101551.16
2023-04-15T17:34:50.206Z,101550.28
2023-04-15T17:39:53.303Z,101549.44
2023-04-15T17:44:55.364Z,101540.34
2023-04-15T17:49:57.447Z,101553.72
2023-04-15T17:54:59.557Z,101564.31
2023-04-15T18:00:01.708Z,101565.19
2023-04-15T18:05:04.588Z,101574.00
2023-04-15T18:10:08.325Z,101572.09
2023-04-15T18:15:11.920Z,101572.38
2023-04-15T18:20:14.263Z,101585.66
2023-04-15T18:25:16.616Z,101600.66
2023-04-15T18:30:18.648Z,101595.16
2023-04-15T18:35:21.063Z,101595.78
2023-04-15T18:40:23.101Z,101602.88
2023-04-15T18:45:25.392Z,101605.63
2023-04-15T18:50:27.532Z,101604.81
2023-04-15T18:55:29.845Z,101620.63
2023-04-15T19:00:31.915Z,101633.03
2023-04-15T19:05:34.048Z,101643.56
2023-04-15T19:10:36.471Z,101657.81
2023-04-15T19:15:38.578Z,101665.75
2023-04-15T19:20:41.205Z,101674.59
2023-04-15T19:25:43.299Z,101669.28
2023-04-15T19:30:45.262Z,101680.00
2023-04-15T19:35:50.258Z,101699.16
2023-04-15T19:40:52.364Z,101703.88
2023-04-15T19:45:55.054Z,101727.59
2023-04-15T19:50:57.622Z,101723.16
2023-04-15T19:55:59.624Z,101716.97
2023-04-15T20:01:02.411Z,101706.25
2023-04-15T20:06:04.481Z,101721.97
2023-04-15T20:11:06.965Z,101727.69
2023-04-15T20:16:09.208Z,101735.75
2023-04-15T20:21:11.356Z,101739.38
2023-04-15T20:26:13.399Z,101736.59
2023-04-15T20:31:15.485Z,101737.28
2023-04-15T20:36:17.656Z,101739.94
2023-04-15T20:41:19.729Z,101738.41
2023-04-15T20:46:22.709Z,101740.34
2023-04-15T20:51:27.356Z,101721.28
2023-04-15T20:56:29.248Z,101728.75
2023-04-15T21:01:31.355Z,101735.75
2023-04-15T21:06:34.738Z,101725.13
2023-04-15T21:16:42.295Z,101742.53
2023-04-15T21:21:44.463Z,101720.13
2023-04-15T21:26:46.538Z,101743.94
2023-04-15T21:31:48.652Z,101738.63
2023-04-15T21:36:50.839Z,101739.78
2023-04-15T21:41:52.924Z,101734.75
2023-04-15T21:46:55.019Z,101730.19
2023-04-15T21:52:01.317Z,101746.88
2023-04-15T21:57:03.790Z,101738.06
2023-04-15T22:02:05.803Z,101744.50
2023-04-15T22:07:08.022Z,101759.59
2023-04-15T22:12:10.170Z,101755.13
2023-04-15T22:17:12.203Z,101764.88
2023-04-15T22:22:14.295Z,101760.44
2023-04-15T22:27:16.576Z,101783.59
2023-04-15T22:32:18.636Z,101763.31
2023-04-15T22:37:20.716Z,101769.56
2023-04-15T22:42:22.921Z,101793.00
2023-04-15T22:47:25.081Z,101784.00
2023-04-15T22:52:30.569Z,101778.78
2023-04-15T22:57:33.615Z,101800.56
2023-04-15T23:02:35.877Z,101793.66
2023-04-15T23:07:38.077Z,101791.94
2023-04-15T23:12:40.195Z,101787.69
2023-04-15T23:17:43.335Z,101792.03
2023-04-15T23:22:45.583Z,101818.59
2023-04-15T23:27:47.605Z,101804.38
2023-04-15T23:32:49.757Z,101808.06
2023-04-15T23:37:51.791Z,101789.47
2023-04-15T23:42:53.822Z,101802.09
2023-04-15T23:47:56.074Z,101798.59
2023-04-15T23:52:58.144Z,101789.31
2023-04-15T23:58:00.217Z,101829.69
